sensor_id;sensor_type;location;lat;lon;timestamp;P1;durP1;ratioP1;P2;durP2;ratioP2
69207;SDS011;70114;47.690;8.898;2023-06-24T00:00:54;8.40;;;3.03;;
69207;SDS011;70114;47.690;8.898;2023-06-24T00:03:20;6.90;;;2.90;;
69207;SDS011;70114;47.690;8.898;2023-06-24T00:05:46;6.70;;;2.50;;
69207;SDS011;70114;47.690;8.898;2023-06-24T00:08:14;7.90;;;3.20;;
69207;SDS011;70114;47.690;8.898;2023-06-24T00:10:47;7.20;;;2.72;;
69207;SDS011;70114;47.690;8.898;2023-06-24T00:13:13;6.97;;;2.80;;
69207;SDS011;70114;47.690;8.898;2023-06-24T00:15:40;8.70;;;2.95;;
69207;SDS011;70114;47.690;8.898;2023-06-24T00:18:09;7.80;;;3.10;;
69207;SDS011;70114;47.690;8.898;2023-06-24T00:20:35;8.97;;;2.80;;
69207;SDS011;70114;47.690;8.898;2023-06-24T00:23:00;7.18;;;2.55;;
69207;SDS011;70114;47.690;8.898;2023-06-24T00:25:26;7.80;;;2.90;;
69207;SDS011;70114;47.690;8.898;2023-06-24T00:27:52;7.90;;;2.80;;
69207;SDS011;70114;47.690;8.898;2023-06-24T00:30:17;7.20;;;2.83;;
69207;SDS011;70114;47.690;8.898;2023-06-24T00:32:43;7.67;;;3.00;;
69207;SDS011;70114;47.690;8.898;2023-06-24T00:35:09;6.87;;;2.60;;
69207;SDS011;70114;47.690;8.898;2023-06-24T00:37:37;7.20;;;2.83;;
69207;SDS011;70114;47.690;8.898;2023-06-24T00:40:02;6.90;;;2.70;;
69207;SDS011;70114;47.690;8.898;2023-06-24T00:42:28;6.72;;;2.75;;
69207;SDS011;70114;47.690;8.898;2023-06-24T00:44:54;7.00;;;2.47;;
69207;SDS011;70114;47.690;8.898;2023-06-24T00:47:19;6.60;;;2.60;;
69207;SDS011;70114;47.690;8.898;2023-06-24T00:49:45;8.03;;;2.70;;
69207;SDS011;70114;47.690;8.898;2023-06-24T00:52:11;8.30;;;2.53;;
69207;SDS011;70114;47.690;8.898;2023-06-24T00:54:40;7.10;;;2.30;;
69207;SDS011;70114;47.690;8.898;2023-06-24T00:57:07;6.50;;;2.20;;
69207;SDS011;70114;47.690;8.898;2023-06-24T00:59:32;7.22;;;2.50;;
69207;SDS011;70114;47.690;8.898;2023-06-24T01:01:59;6.97;;;2.60;;
69207;SDS011;70114;47.690;8.898;2023-06-24T01:04:29;6.93;;;2.40;;
69207;SDS011;70114;47.690;8.898;2023-06-24T01:06:55;7.38;;;2.60;;
69207;SDS011;70114;47.690;8.898;2023-06-24T01:09:22;6.97;;;2.42;;
69207;SDS011;70114;47.690;8.898;2023-06-24T01:11:48;7.03;;;2.50;;
69207;SDS011;70114;47.690;8.898;2023-06-24T01:14:14;8.40;;;2.57;;
69207;SDS011;70114;47.690;8.898;2023-06-24T01:27:48;7.23;;;2.60;;
69207;SDS011;70114;47.690;8.898;2023-06-24T01:33:07;7.53;;;2.65;;
69207;SDS011;70114;47.690;8.898;2023-06-24T01:35:35;7.78;;;2.35;;
69207;SDS011;70114;47.690;8.898;2023-06-24T01:38:10;7.38;;;3.13;;
69207;SDS011;70114;47.690;8.898;2023-06-24T01:40:47;6.53;;;2.57;;
69207;SDS011;70114;47.690;8.898;2023-06-24T01:43:13;7.65;;;2.60;;
69207;SDS011;70114;47.690;8.898;2023-06-24T01:45:42;6.55;;;2.63;;
69207;SDS011;70114;47.690;8.898;2023-06-24T01:48:16;7.72;;;2.90;;
69207;SDS011;70114;47.690;8.898;2023-06-24T01:50:54;6.80;;;2.60;;
69207;SDS011;70114;47.690;8.898;2023-06-24T01:53:26;7.80;;;2.70;;
69207;SDS011;70114;47.690;8.898;2023-06-24T01:55:54;7.25;;;2.67;;
69207;SDS011;70114;47.690;8.898;2023-06-24T01:58:20;7.18;;;2.58;;
69207;SDS011;70114;47.690;8.898;2023-06-24T02:00:47;7.00;;;2.40;;
69207;SDS011;70114;47.690;8.898;2023-06-24T02:03:14;7.15;;;2.63;;
69207;SDS011;70114;47.690;8.898;2023-06-24T02:05:40;7.30;;;2.70;;
69207;SDS011;70114;47.690;8.898;2023-06-24T02:08:10;7.00;;;2.65;;
69207;SDS011;70114;47.690;8.898;2023-06-24T02:10:38;7.32;;;2.80;;
69207;SDS011;70114;47.690;8.898;2023-06-24T02:13:05;7.68;;;2.67;;
69207;SDS011;70114;47.690;8.898;2023-06-24T02:15:33;8.52;;;2.60;;
69207;SDS011;70114;47.690;8.898;2023-06-24T02:18:00;7.63;;;3.00;;
69207;SDS011;70114;47.690;8.898;2023-06-24T02:20:28;7.00;;;2.40;;
69207;SDS011;70114;47.690;8.898;2023-06-24T02:22:55;7.70;;;2.90;;
69207;SDS011;70114;47.690;8.898;2023-06-24T02:25:23;8.32;;;2.38;;
69207;SDS011;70114;47.690;8.898;2023-06-24T02:27:50;7.40;;;2.70;;
69207;SDS011;70114;47.690;8.898;2023-06-24T02:30:17;6.30;;;2.37;;
69207;SDS011;70114;47.690;8.898;2023-06-24T02:32:44;7.10;;;2.33;;
69207;SDS011;70114;47.690;8.898;2023-06-24T02:35:09;10.47;;;2.60;;
69207;SDS011;70114;47.690;8.898;2023-06-24T02:37:35;8.17;;;2.70;;
69207;SDS011;70114;47.690;8.898;2023-06-24T02:40:00;8.13;;;3.00;;
69207;SDS011;70114;47.690;8.898;2023-06-24T02:42:27;8.40;;;3.50;;
69207;SDS011;70114;47.690;8.898;2023-06-24T02:44:52;8.30;;;3.10;;
69207;SDS011;70114;47.690;8.898;2023-06-24T02:47:18;7.70;;;2.78;;
69207;SDS011;70114;47.690;8.898;2023-06-24T02:49:44;7.40;;;2.87;;
69207;SDS011;70114;47.690;8.898;2023-06-24T02:52:12;7.97;;;2.85;;
69207;SDS011;70114;47.690;8.898;2023-06-24T02:54:38;8.13;;;3.03;;
69207;SDS011;70114;47.690;8.898;2023-06-24T02:57:05;7.25;;;2.53;;
69207;SDS011;70114;47.690;8.898;2023-06-24T02:59:31;6.63;;;2.42;;
69207;SDS011;70114;47.690;8.898;2023-06-24T03:01:57;9.10;;;3.20;;
69207;SDS011;70114;47.690;8.898;2023-06-24T03:04:24;8.82;;;2.92;;
69207;SDS011;70114;47.690;8.898;2023-06-24T03:06:51;8.55;;;3.00;;
69207;SDS011;70114;47.690;8.898;2023-06-24T03:09:17;10.20;;;3.10;;
69207;SDS011;70114;47.690;8.898;2023-06-24T03:11:43;8.32;;;3.08;;
69207;SDS011;70114;47.690;8.898;2023-06-24T03:14:12;8.07;;;3.00;;
69207;SDS011;70114;47.690;8.898;2023-06-24T03:16:38;7.75;;;2.90;;
69207;SDS011;70114;47.690;8.898;2023-06-24T03:19:06;8.63;;;2.93;;
69207;SDS011;70114;47.690;8.898;2023-06-24T03:21:32;9.45;;;3.30;;
69207;SDS011;70114;47.690;8.898;2023-06-24T03:23:57;10.00;;;2.90;;
69207;SDS011;70114;47.690;8.898;2023-06-24T03:26:24;7.47;;;2.75;;
69207;SDS011;70114;47.690;8.898;2023-06-24T03:28:56;7.57;;;2.50;;
69207;SDS011;70114;47.690;8.898;2023-06-24T03:31:21;6.67;;;2.37;;
69207;SDS011;70114;47.690;8.898;2023-06-24T03:33:48;7.00;;;2.38;;
69207;SDS011;70114;47.690;8.898;2023-06-24T03:36:13;7.13;;;2.50;;
69207;SDS011;70114;47.690;8.898;2023-06-24T03:38:39;6.97;;;2.60;;
69207;SDS011;70114;47.690;8.898;2023-06-24T03:41:04;6.93;;;2.20;;
69207;SDS011;70114;47.690;8.898;2023-06-24T03:43:29;7.03;;;2.10;;
69207;SDS011;70114;47.690;8.898;2023-06-24T03:45:55;7.63;;;2.47;;
69207;SDS011;70114;47.690;8.898;2023-06-24T03:48:20;6.73;;;2.37;;
69207;SDS011;70114;47.690;8.898;2023-06-24T03:50:45;8.67;;;2.50;;
69207;SDS011;70114;47.690;8.898;2023-06-24T03:53:11;8.52;;;2.50;;
69207;SDS011;70114;47.690;8.898;2023-06-24T03:55:36;6.97;;;2.60;;
69207;SDS011;70114;47.690;8.898;2023-06-24T03:58:02;6.87;;;2.20;;
69207;SDS011;70114;47.690;8.898;2023-06-24T04:00:27;8.27;;;2.40;;
69207;SDS011;70114;47.690;8.898;2023-06-24T04:02:52;7.30;;;2.20;;
69207;SDS011;70114;47.690;8.898;2023-06-24T04:05:18;6.67;;;2.10;;
69207;SDS011;70114;47.690;8.898;2023-06-24T04:07:44;7.50;;;2.10;;
69207;SDS011;70114;47.690;8.898;2023-06-24T04:10:12;6.60;;;2.33;;
69207;SDS011;70114;47.690;8.898;2023-06-24T04:12:38;7.47;;;2.33;;
69207;SDS011;70114;47.690;8.898;2023-06-24T04:15:03;7.40;;;2.55;;
69207;SDS011;70114;47.690;8.898;2023-06-24T04:17:30;6.90;;;2.42;;
69207;SDS011;70114;47.690;8.898;2023-06-24T04:19:56;7.93;;;3.07;;
69207;SDS011;70114;47.690;8.898;2023-06-24T04:22:21;7.75;;;2.65;;
69207;SDS011;70114;47.690;8.898;2023-06-24T04:24:47;6.80;;;2.50;;
69207;SDS011;70114;47.690;8.898;2023-06-24T04:27:12;6.85;;;2.42;;
69207;SDS011;70114;47.690;8.898;2023-06-24T04:29:38;7.63;;;2.17;;
69207;SDS011;70114;47.690;8.898;2023-06-24T04:32:03;6.97;;;2.20;;
69207;SDS011;70114;47.690;8.898;2023-06-24T04:34:29;7.40;;;2.30;;
69207;SDS011;70114;47.690;8.898;2023-06-24T04:36:54;6.33;;;2.30;;
69207;SDS011;70114;47.690;8.898;2023-06-24T04:39:20;6.93;;;2.37;;
69207;SDS011;70114;47.690;8.898;2023-06-24T04:41:45;6.60;;;2.17;;
69207;SDS011;70114;47.690;8.898;2023-06-24T04:44:11;7.22;;;2.05;;
69207;SDS011;70114;47.690;8.898;2023-06-24T04:46:37;6.70;;;2.10;;
69207;SDS011;70114;47.690;8.898;2023-06-24T04:49:04;7.45;;;2.22;;
69207;SDS011;70114;47.690;8.898;2023-06-24T04:51:30;7.18;;;2.47;;
69207;SDS011;70114;47.690;8.898;2023-06-24T04:53:56;6.27;;;2.00;;
69207;SDS011;70114;47.690;8.898;2023-06-24T04:56:21;7.93;;;2.47;;
69207;SDS011;70114;47.690;8.898;2023-06-24T04:58:46;7.47;;;2.10;;
69207;SDS011;70114;47.690;8.898;2023-06-24T05:01:12;7.00;;;2.28;;
69207;SDS011;70114;47.690;8.898;2023-06-24T05:03:37;7.80;;;2.43;;
69207;SDS011;70114;47.690;8.898;2023-06-24T05:06:02;7.57;;;2.60;;
69207;SDS011;70114;47.690;8.898;2023-06-24T05:08:28;6.27;;;2.03;;
69207;SDS011;70114;47.690;8.898;2023-06-24T05:10:53;8.47;;;2.33;;
69207;SDS011;70114;47.690;8.898;2023-06-24T05:13:18;7.37;;;2.30;;
69207;SDS011;70114;47.690;8.898;2023-06-24T05:15:44;6.80;;;2.60;;
69207;SDS011;70114;47.690;8.898;2023-06-24T05:18:09;7.27;;;2.60;;
69207;SDS011;70114;47.690;8.898;2023-06-24T05:20:34;7.30;;;2.53;;
69207;SDS011;70114;47.690;8.898;2023-06-24T05:23:00;6.57;;;2.10;;
69207;SDS011;70114;47.690;8.898;2023-06-24T05:25:25;6.37;;;2.10;;
69207;SDS011;70114;47.690;8.898;2023-06-24T05:27:51;7.27;;;2.40;;
69207;SDS011;70114;47.690;8.898;2023-06-24T05:30:16;7.90;;;2.20;;
69207;SDS011;70114;47.690;8.898;2023-06-24T05:32:42;8.47;;;2.30;;
69207;SDS011;70114;47.690;8.898;2023-06-24T05:35:07;7.07;;;2.20;;
69207;SDS011;70114;47.690;8.898;2023-06-24T05:37:33;6.88;;;2.30;;
69207;SDS011;70114;47.690;8.898;2023-06-24T05:39:58;6.77;;;2.00;;
69207;SDS011;70114;47.690;8.898;2023-06-24T05:42:26;6.53;;;2.17;;
69207;SDS011;70114;47.690;8.898;2023-06-24T05:44:52;6.30;;;2.00;;
69207;SDS011;70114;47.690;8.898;2023-06-24T05:47:17;7.10;;;2.40;;
69207;SDS011;70114;47.690;8.898;2023-06-24T05:49:42;6.80;;;2.40;;
69207;SDS011;70114;47.690;8.898;2023-06-24T05:52:08;7.50;;;2.30;;
69207;SDS011;70114;47.690;8.898;2023-06-24T05:54:33;7.33;;;2.13;;
69207;SDS011;70114;47.690;8.898;2023-06-24T05:56:58;6.30;;;2.13;;
69207;SDS011;70114;47.690;8.898;2023-06-24T05:59:24;6.95;;;1.80;;
69207;SDS011;70114;47.690;8.898;2023-06-24T06:01:50;6.87;;;2.20;;
69207;SDS011;70114;47.690;8.898;2023-06-24T06:04:15;6.30;;;2.13;;
69207;SDS011;70114;47.690;8.898;2023-06-24T06:06:40;6.40;;;2.30;;
69207;SDS011;70114;47.690;8.898;2023-06-24T06:09:06;6.87;;;2.10;;
69207;SDS011;70114;47.690;8.898;2023-06-24T06:11:31;5.97;;;1.90;;
69207;SDS011;70114;47.690;8.898;2023-06-24T06:13:57;6.43;;;2.03;;
69207;SDS011;70114;47.690;8.898;2023-06-24T06:16:22;6.18;;;2.20;;
69207;SDS011;70114;47.690;8.898;2023-06-24T06:18:48;5.97;;;2.00;;
69207;SDS011;70114;47.690;8.898;2023-06-24T06:21:14;6.78;;;2.20;;
69207;SDS011;70114;47.690;8.898;2023-06-24T06:23:39;6.07;;;1.97;;
69207;SDS011;70114;47.690;8.898;2023-06-24T06:26:04;6.77;;;2.33;;
69207;SDS011;70114;47.690;8.898;2023-06-24T06:28:30;6.65;;;2.20;;
69207;SDS011;70114;47.690;8.898;2023-06-24T06:30:55;6.17;;;2.20;;
69207;SDS011;70114;47.690;8.898;2023-06-24T06:33:22;6.38;;;2.15;;
69207;SDS011;70114;47.690;8.898;2023-06-24T06:35:47;6.63;;;2.47;;
69207;SDS011;70114;47.690;8.898;2023-06-24T06:38:13;6.37;;;2.20;;
69207;SDS011;70114;47.690;8.898;2023-06-24T06:40:38;6.83;;;2.10;;
69207;SDS011;70114;47.690;8.898;2023-06-24T06:43:03;6.93;;;2.30;;
69207;SDS011;70114;47.690;8.898;2023-06-24T06:45:29;6.20;;;2.30;;
69207;SDS011;70114;47.690;8.898;2023-06-24T06:47:54;6.17;;;2.13;;
69207;SDS011;70114;47.690;8.898;2023-06-24T06:50:19;6.00;;;2.07;;
69207;SDS011;70114;47.690;8.898;2023-06-24T06:52:45;6.77;;;2.40;;
69207;SDS011;70114;47.690;8.898;2023-06-24T06:55:10;7.63;;;2.70;;
69207;SDS011;70114;47.690;8.898;2023-06-24T06:57:36;6.32;;;2.40;;
69207;SDS011;70114;47.690;8.898;2023-06-24T07:00:01;6.83;;;2.20;;
69207;SDS011;70114;47.690;8.898;2023-06-24T07:02:27;7.30;;;2.50;;
69207;SDS011;70114;47.690;8.898;2023-06-24T07:04:52;6.63;;;2.25;;
69207;SDS011;70114;47.690;8.898;2023-06-24T07:07:17;7.80;;;2.90;;
69207;SDS011;70114;47.690;8.898;2023-06-24T07:09:43;7.70;;;2.70;;
69207;SDS011;70114;47.690;8.898;2023-06-24T07:12:08;6.40;;;2.37;;
69207;SDS011;70114;47.690;8.898;2023-06-24T07:14:34;6.70;;;2.40;;
69207;SDS011;70114;47.690;8.898;2023-06-24T07:16:59;8.07;;;2.50;;
69207;SDS011;70114;47.690;8.898;2023-06-24T07:19:25;7.17;;;2.67;;
69207;SDS011;70114;47.690;8.898;2023-06-24T07:21:51;6.20;;;2.25;;
69207;SDS011;70114;47.690;8.898;2023-06-24T07:24:17;7.50;;;2.33;;
69207;SDS011;70114;47.690;8.898;2023-06-24T07:26:42;6.65;;;2.45;;
69207;SDS011;70114;47.690;8.898;2023-06-24T07:29:07;6.80;;;2.70;;
69207;SDS011;70114;47.690;8.898;2023-06-24T07:31:36;7.70;;;2.57;;
69207;SDS011;70114;47.690;8.898;2023-06-24T07:34:02;7.60;;;2.60;;
69207;SDS011;70114;47.690;8.898;2023-06-24T07:36:27;7.10;;;2.67;;
69207;SDS011;70114;47.690;8.898;2023-06-24T07:38:53;7.38;;;2.63;;
69207;SDS011;70114;47.690;8.898;2023-06-24T07:41:18;6.60;;;2.30;;
69207;SDS011;70114;47.690;8.898;2023-06-24T07:43:43;7.20;;;2.70;;
69207;SDS011;70114;47.690;8.898;2023-06-24T07:46:09;6.63;;;2.73;;
69207;SDS011;70114;47.690;8.898;2023-06-24T07:48:34;7.00;;;2.70;;
69207;SDS011;70114;47.690;8.898;2023-06-24T07:51:00;7.07;;;2.70;;
69207;SDS011;70114;47.690;8.898;2023-06-24T07:53:25;6.77;;;2.30;;
69207;SDS011;70114;47.690;8.898;2023-06-24T07:55:51;6.83;;;2.57;;
69207;SDS011;70114;47.690;8.898;2023-06-24T07:58:16;6.60;;;2.70;;
69207;SDS011;70114;47.690;8.898;2023-06-24T08:00:41;6.47;;;2.40;;
69207;SDS011;70114;47.690;8.898;2023-06-24T08:03:07;6.70;;;2.67;;
69207;SDS011;70114;47.690;8.898;2023-06-24T08:05:33;7.93;;;2.77;;
69207;SDS011;70114;47.690;8.898;2023-06-24T08:07:58;7.70;;;2.40;;
69207;SDS011;70114;47.690;8.898;2023-06-24T08:10:24;6.57;;;2.60;;
69207;SDS011;70114;47.690;8.898;2023-06-24T08:12:49;7.33;;;3.00;;
69207;SDS011;70114;47.690;8.898;2023-06-24T08:15:15;7.68;;;3.00;;
69207;SDS011;70114;47.690;8.898;2023-06-24T08:17:40;7.57;;;3.07;;
69207;SDS011;70114;47.690;8.898;2023-06-24T08:20:05;8.80;;;3.40;;
69207;SDS011;70114;47.690;8.898;2023-06-24T08:22:31;8.48;;;3.42;;
69207;SDS011;70114;47.690;8.898;2023-06-24T08:24:57;7.00;;;2.80;;
69207;SDS011;70114;47.690;8.898;2023-06-24T08:27:23;7.05;;;2.95;;
69207;SDS011;70114;47.690;8.898;2023-06-24T08:29:49;7.17;;;3.20;;
69207;SDS011;70114;47.690;8.898;2023-06-24T08:32:14;8.73;;;3.07;;
69207;SDS011;70114;47.690;8.898;2023-06-24T08:34:39;7.07;;;3.00;;
69207;SDS011;70114;47.690;8.898;2023-06-24T08:37:05;7.10;;;2.93;;
69207;SDS011;70114;47.690;8.898;2023-06-24T08:39:30;7.77;;;3.10;;
69207;SDS011;70114;47.690;8.898;2023-06-24T08:41:56;7.30;;;2.93;;
69207;SDS011;70114;47.690;8.898;2023-06-24T08:44:21;8.50;;;3.07;;
69207;SDS011;70114;47.690;8.898;2023-06-24T08:46:47;7.72;;;3.20;;
69207;SDS011;70114;47.690;8.898;2023-06-24T08:51:49;7.05;;;2.85;;
69207;SDS011;70114;47.690;8.898;2023-06-24T08:54:19;9.73;;;3.75;;
69207;SDS011;70114;47.690;8.898;2023-06-24T08:56:46;6.80;;;2.97;;
69207;SDS011;70114;47.690;8.898;2023-06-24T08:59:12;8.07;;;3.33;;
69207;SDS011;70114;47.690;8.898;2023-06-24T09:01:37;8.27;;;3.37;;
69207;SDS011;70114;47.690;8.898;2023-06-24T09:04:03;7.93;;;3.37;;
69207;SDS011;70114;47.690;8.898;2023-06-24T09:06:30;7.75;;;3.40;;
69207;SDS011;70114;47.690;8.898;2023-06-24T09:08:56;7.93;;;3.35;;
69207;SDS011;70114;47.690;8.898;2023-06-24T09:11:26;7.17;;;3.30;;
69207;SDS011;70114;47.690;8.898;2023-06-24T09:13:56;6.97;;;3.20;;
69207;SDS011;70114;47.690;8.898;2023-06-24T09:16:25;7.07;;;3.28;;
69207;SDS011;70114;47.690;8.898;2023-06-24T09:18:51;7.22;;;3.22;;
69207;SDS011;70114;47.690;8.898;2023-06-24T09:21:25;7.35;;;3.30;;
69207;SDS011;70114;47.690;8.898;2023-06-24T09:23:55;6.57;;;2.93;;
69207;SDS011;70114;47.690;8.898;2023-06-24T09:26:24;7.53;;;3.45;;
69207;SDS011;70114;47.690;8.898;2023-06-24T09:28:50;7.20;;;3.30;;
69207;SDS011;70114;47.690;8.898;2023-06-24T09:31:16;7.53;;;3.30;;
69207;SDS011;70114;47.690;8.898;2023-06-24T09:33:42;7.18;;;3.17;;
69207;SDS011;70114;47.690;8.898;2023-06-24T09:36:11;7.83;;;3.47;;
69207;SDS011;70114;47.690;8.898;2023-06-24T09:38:38;7.28;;;3.28;;
69207;SDS011;70114;47.690;8.898;2023-06-24T09:41:06;7.22;;;3.10;;
69207;SDS011;70114;47.690;8.898;2023-06-24T09:43:35;7.80;;;3.60;;
69207;SDS011;70114;47.690;8.898;2023-06-24T09:46:02;6.63;;;2.80;;
69207;SDS011;70114;47.690;8.898;2023-06-24T09:48:28;6.97;;;3.50;;
69207;SDS011;70114;47.690;8.898;2023-06-24T09:50:54;7.43;;;3.57;;
69207;SDS011;70114;47.690;8.898;2023-06-24T09:53:26;7.57;;;3.13;;
69207;SDS011;70114;47.690;8.898;2023-06-24T09:55:55;6.93;;;3.30;;
69207;SDS011;70114;47.690;8.898;2023-06-24T09:58:22;7.00;;;3.10;;
69207;SDS011;70114;47.690;8.898;2023-06-24T10:00:49;8.90;;;3.50;;
69207;SDS011;70114;47.690;8.898;2023-06-24T10:03:15;6.50;;;3.10;;
69207;SDS011;70114;47.690;8.898;2023-06-24T10:05:40;7.25;;;3.00;;
69207;SDS011;70114;47.690;8.898;2023-06-24T10:08:06;6.53;;;2.80;;
69207;SDS011;70114;47.690;8.898;2023-06-24T10:10:33;6.47;;;2.90;;
69207;SDS011;70114;47.690;8.898;2023-06-24T10:12:58;7.00;;;3.40;;
69207;SDS011;70114;47.690;8.898;2023-06-24T10:15:24;6.72;;;2.92;;
69207;SDS011;70114;47.690;8.898;2023-06-24T10:17:52;7.03;;;3.00;;
69207;SDS011;70114;47.690;8.898;2023-06-24T10:20:24;7.45;;;3.33;;
69207;SDS011;70114;47.690;8.898;2023-06-24T10:22:51;7.55;;;3.25;;
69207;SDS011;70114;47.690;8.898;2023-06-24T10:25:17;7.10;;;2.90;;
69207;SDS011;70114;47.690;8.898;2023-06-24T10:27:43;7.47;;;3.00;;
69207;SDS011;70114;47.690;8.898;2023-06-24T10:30:09;7.43;;;3.42;;
69207;SDS011;70114;47.690;8.898;2023-06-24T10:32:43;7.03;;;3.17;;
69207;SDS011;70114;47.690;8.898;2023-06-24T10:35:21;7.73;;;3.40;;
69207;SDS011;70114;47.690;8.898;2023-06-24T10:37:55;7.32;;;3.13;;
69207;SDS011;70114;47.690;8.898;2023-06-24T10:40:35;7.63;;;3.72;;
69207;SDS011;70114;47.690;8.898;2023-06-24T10:46:06;6.93;;;3.30;;
69207;SDS011;70114;47.690;8.898;2023-06-24T10:48:40;6.93;;;3.17;;
69207;SDS011;70114;47.690;8.898;2023-06-24T10:51:06;6.70;;;3.63;;
69207;SDS011;70114;47.690;8.898;2023-06-24T10:53:31;7.00;;;3.35;;
69207;SDS011;70114;47.690;8.898;2023-06-24T10:55:57;8.17;;;3.30;;
69207;SDS011;70114;47.690;8.898;2023-06-24T10:58:23;7.40;;;3.70;;
69207;SDS011;70114;47.690;8.898;2023-06-24T11:00:49;7.83;;;3.03;;
69207;SDS011;70114;47.690;8.898;2023-06-24T11:03:15;6.80;;;3.08;;
69207;SDS011;70114;47.690;8.898;2023-06-24T11:05:44;7.28;;;3.33;;
69207;SDS011;70114;47.690;8.898;2023-06-24T11:08:10;7.17;;;2.97;;
69207;SDS011;70114;47.690;8.898;2023-06-24T11:10:43;8.77;;;3.47;;
69207;SDS011;70114;47.690;8.898;2023-06-24T11:13:12;6.75;;;2.88;;
69207;SDS011;70114;47.690;8.898;2023-06-24T11:15:39;8.63;;;3.55;;
69207;SDS011;70114;47.690;8.898;2023-06-24T11:18:07;7.50;;;2.93;;
69207;SDS011;70114;47.690;8.898;2023-06-24T11:20:33;6.50;;;2.75;;
69207;SDS011;70114;47.690;8.898;2023-06-24T11:22:58;8.40;;;3.20;;
69207;SDS011;70114;47.690;8.898;2023-06-24T11:25:24;13.25;;;6.97;;
69207;SDS011;70114;47.690;8.898;2023-06-24T11:27:50;8.20;;;3.40;;
69207;SDS011;70114;47.690;8.898;2023-06-24T11:30:17;16.48;;;4.15;;
69207;SDS011;70114;47.690;8.898;2023-06-24T11:32:43;6.90;;;3.10;;
69207;SDS011;70114;47.690;8.898;2023-06-24T11:35:10;6.80;;;2.90;;
69207;SDS011;70114;47.690;8.898;2023-06-24T11:37:36;6.70;;;3.17;;
69207;SDS011;70114;47.690;8.898;2023-06-24T11:40:05;6.43;;;2.97;;
69207;SDS011;70114;47.690;8.898;2023-06-24T11:42:33;7.10;;;2.95;;
69207;SDS011;70114;47.690;8.898;2023-06-24T11:45:01;7.35;;;2.78;;
69207;SDS011;70114;47.690;8.898;2023-06-24T11:47:31;6.38;;;2.88;;
69207;SDS011;70114;47.690;8.898;2023-06-24T11:49:59;6.03;;;2.80;;
69207;SDS011;70114;47.690;8.898;2023-06-24T11:52:46;7.22;;;3.22;;
69207;SDS011;70114;47.690;8.898;2023-06-24T11:55:23;7.32;;;3.00;;
69207;SDS011;70114;47.690;8.898;2023-06-24T11:57:51;6.20;;;2.65;;
69207;SDS011;70114;47.690;8.898;2023-06-24T12:00:21;8.82;;;3.28;;
69207;SDS011;70114;47.690;8.898;2023-06-24T12:02:54;7.00;;;2.87;;
69207;SDS011;70114;47.690;8.898;2023-06-24T12:05:24;9.18;;;3.10;;
69207;SDS011;70114;47.690;8.898;2023-06-24T12:07:53;8.00;;;3.22;;
69207;SDS011;70114;47.690;8.898;2023-06-24T12:10:20;6.63;;;3.08;;
69207;SDS011;70114;47.690;8.898;2023-06-24T12:12:45;6.57;;;2.90;;
69207;SDS011;70114;47.690;8.898;2023-06-24T12:15:11;6.67;;;3.10;;
69207;SDS011;70114;47.690;8.898;2023-06-24T12:17:36;7.03;;;3.20;;
69207;SDS011;70114;47.690;8.898;2023-06-24T12:20:02;6.93;;;2.95;;
69207;SDS011;70114;47.690;8.898;2023-06-24T12:22:30;7.60;;;2.53;;
69207;SDS011;70114;47.690;8.898;2023-06-24T12:24:55;7.35;;;3.10;;
69207;SDS011;70114;47.690;8.898;2023-06-24T12:27:21;6.57;;;2.90;;
69207;SDS011;70114;47.690;8.898;2023-06-24T12:29:46;6.83;;;2.60;;
69207;SDS011;70114;47.690;8.898;2023-06-24T12:32:11;6.03;;;2.80;;
69207;SDS011;70114;47.690;8.898;2023-06-24T12:34:37;6.20;;;2.80;;
69207;SDS011;70114;47.690;8.898;2023-06-24T12:37:02;5.80;;;2.77;;
69207;SDS011;70114;47.690;8.898;2023-06-24T12:39:28;6.37;;;2.70;;
69207;SDS011;70114;47.690;8.898;2023-06-24T12:41:53;7.30;;;2.90;;
69207;SDS011;70114;47.690;8.898;2023-06-24T12:44:18;6.03;;;2.83;;
69207;SDS011;70114;47.690;8.898;2023-06-24T12:46:44;7.15;;;2.80;;
69207;SDS011;70114;47.690;8.898;2023-06-24T12:49:09;5.60;;;2.23;;
69207;SDS011;70114;47.690;8.898;2023-06-24T12:51:34;6.33;;;3.03;;
69207;SDS011;70114;47.690;8.898;2023-06-24T12:54:00;6.27;;;2.87;;
69207;SDS011;70114;47.690;8.898;2023-06-24T12:56:25;6.30;;;3.00;;
69207;SDS011;70114;47.690;8.898;2023-06-24T12:58:50;8.43;;;3.03;;
69207;SDS011;70114;47.690;8.898;2023-06-24T13:01:16;6.80;;;3.10;;
69207;SDS011;70114;47.690;8.898;2023-06-24T13:03:41;5.80;;;2.57;;
69207;SDS011;70114;47.690;8.898;2023-06-24T13:06:07;8.43;;;2.63;;
69207;SDS011;70114;47.690;8.898;2023-06-24T13:08:32;6.13;;;2.63;;
69207;SDS011;70114;47.690;8.898;2023-06-24T13:10:57;6.75;;;2.88;;
69207;SDS011;70114;47.690;8.898;2023-06-24T13:13:23;6.70;;;2.80;;
69207;SDS011;70114;47.690;8.898;2023-06-24T13:15:48;6.07;;;2.70;;
69207;SDS011;70114;47.690;8.898;2023-06-24T13:18:13;5.80;;;2.43;;
69207;SDS011;70114;47.690;8.898;2023-06-24T13:20:39;5.82;;;2.70;;
69207;SDS011;70114;47.690;8.898;2023-06-24T13:23:04;5.80;;;2.50;;
69207;SDS011;70114;47.690;8.898;2023-06-24T13:25:30;7.00;;;2.87;;
69207;SDS011;70114;47.690;8.898;2023-06-24T13:27:55;7.00;;;3.40;;
69207;SDS011;70114;47.690;8.898;2023-06-24T13:30:21;7.00;;;3.20;;
69207;SDS011;70114;47.690;8.898;2023-06-24T13:32:46;6.20;;;3.03;;
69207;SDS011;70114;47.690;8.898;2023-06-24T13:35:14;6.68;;;2.78;;
69207;SDS011;70114;47.690;8.898;2023-06-24T13:37:39;7.73;;;2.80;;
69207;SDS011;70114;47.690;8.898;2023-06-24T13:40:06;6.00;;;2.70;;
69207;SDS011;70114;47.690;8.898;2023-06-24T13:42:31;5.97;;;2.70;;
69207;SDS011;70114;47.690;8.898;2023-06-24T13:44:57;6.20;;;2.80;;
69207;SDS011;70114;47.690;8.898;2023-06-24T13:47:22;6.20;;;2.97;;
69207;SDS011;70114;47.690;8.898;2023-06-24T13:49:48;6.50;;;2.80;;
69207;SDS011;70114;47.690;8.898;2023-06-24T13:52:13;6.83;;;3.00;;
69207;SDS011;70114;47.690;8.898;2023-06-24T13:54:39;8.03;;;2.90;;
69207;SDS011;70114;47.690;8.898;2023-06-24T13:57:04;6.97;;;2.72;;
69207;SDS011;70114;47.690;8.898;2023-06-24T13:59:29;6.83;;;2.90;;
69207;SDS011;70114;47.690;8.898;2023-06-24T14:01:55;6.80;;;3.20;;
69207;SDS011;70114;47.690;8.898;2023-06-24T14:04:20;6.67;;;2.97;;
69207;SDS011;70114;47.690;8.898;2023-06-24T14:06:46;5.90;;;2.80;;
69207;SDS011;70114;47.690;8.898;2023-06-24T14:09:11;6.47;;;2.83;;
69207;SDS011;70114;47.690;8.898;2023-06-24T14:11:37;6.10;;;3.00;;
69207;SDS011;70114;47.690;8.898;2023-06-24T14:14:02;7.07;;;2.70;;
69207;SDS011;70114;47.690;8.898;2023-06-24T14:16:28;7.33;;;3.20;;
69207;SDS011;70114;47.690;8.898;2023-06-24T14:18:53;6.80;;;2.83;;
69207;SDS011;70114;47.690;8.898;2023-06-24T14:21:19;6.87;;;3.20;;
69207;SDS011;70114;47.690;8.898;2023-06-24T14:23:44;6.60;;;3.00;;
69207;SDS011;70114;47.690;8.898;2023-06-24T14:26:09;6.17;;;3.10;;
69207;SDS011;70114;47.690;8.898;2023-06-24T14:28:35;6.97;;;3.10;;
69207;SDS011;70114;47.690;8.898;2023-06-24T14:31:00;6.13;;;2.90;;
69207;SDS011;70114;47.690;8.898;2023-06-24T14:33:26;6.60;;;3.20;;
69207;SDS011;70114;47.690;8.898;2023-06-24T14:35:51;6.40;;;3.03;;
69207;SDS011;70114;47.690;8.898;2023-06-24T14:38:17;7.30;;;3.40;;
69207;SDS011;70114;47.690;8.898;2023-06-24T14:40:42;6.17;;;3.17;;
69207;SDS011;70114;47.690;8.898;2023-06-24T14:43:08;6.67;;;3.10;;
69207;SDS011;70114;47.690;8.898;2023-06-24T14:45:33;7.00;;;3.40;;
69207;SDS011;70114;47.690;8.898;2023-06-24T14:47:58;6.40;;;2.92;;
69207;SDS011;70114;47.690;8.898;2023-06-24T14:50:24;5.73;;;2.87;;
69207;SDS011;70114;47.690;8.898;2023-06-24T14:52:49;6.30;;;3.27;;
69207;SDS011;70114;47.690;8.898;2023-06-24T14:55:15;5.93;;;3.10;;
69207;SDS011;70114;47.690;8.898;2023-06-24T14:57:40;6.30;;;3.33;;
69207;SDS011;70114;47.690;8.898;2023-06-24T15:00:06;6.60;;;3.50;;
69207;SDS011;70114;47.690;8.898;2023-06-24T15:02:32;6.22;;;3.55;;